Time;durP1;ratioP1;P1;durP2;ratioP2;P2;SDS_P1;SDS_P2;PMS_P1;PMS_P2;Temp;Humidity;BMP_temperature;BMP_pressure;BME280_temperature;BME280_humidity;BME280_pressure;Samples;Min_cycle;Max_cycle;Signal;HPM_P1;HPM_P2
2021/05/28 00:01:47;;;;;;;31.38;13.70;;;;;;;;;;5108027;27;20036;-72
2021/05/28 00:04:13;;;;;;;28.02;12.20;;;;;;;;;;5118792;27;20047;-72
2021/05/28 00:06:39;;;;;;;22.90;13.45;;;;;;;;;;5109755;28;20031;-72
2021/05/28 00:09:06;;;;;;;28.35;12.20;;;;;;;;;;5134823;27;20046;-72
2021/05/28 00:11:32;;;;;;;25.50;12.45;;;;;;;;;;5098652;27;20133;-73
2021/05/28 00:13:58;;;;;;;26.27;11.73;;;;;;;;;;5116986;27;20036;-72
2021/05/28 00:16:25;;;;;;;20.95;10.23;;;;;;;;;;5111868;28;20103;-74
2021/05/28 00:19:02;;;;;;;26.15;9.77;;;;;;;;;;5115903;27;20036;-75
2021/05/28 00:21:29;;;;;;;23.33;10.18;;;;;;;;;;5119493;27;20471;-72
2021/05/28 00:23:55;;;;;;;25.45;10.77;;;;;;;;;;5117694;27;20390;-72
2021/05/28 00:26:21;;;;;;;22.92;11.20;;;;;;;;;;5115068;27;20040;-72
2021/05/28 00:28:49;;;;;;;21.73;10.13;;;;;;;;;;5116985;27;20051;-71
2021/05/28 00:31:16;;;;;;;22.65;9.73;;;;;;;;;;5114379;27;20035;-72
2021/05/28 00:33:42;;;;;;;24.67;10.65;;;;;;;;;;5114341;27;20043;-72
2021/05/28 00:36:09;;;;;;;20.15;9.90;;;;;;;;;;5107993;28;20402;-72
2021/05/28 00:38:35;;;;;;;26.88;11.20;;;;;;;;;;5124452;27;20050;-72
2021/05/28 00:41:02;;;;;;;21.92;10.57;;;;;;;;;;5120358;27;20051;-72
2021/05/28 00:43:28;;;;;;;28.58;11.27;;;;;;;;;;5108663;28;20035;-72
2021/05/28 00:45:54;;;;;;;29.77;10.93;;;;;;;;;;5142188;27;20046;-72
2021/05/28 00:48:20;;;;;;;27.48;10.38;;;;;;;;;;5110316;27;20545;-72
2021/05/28 00:50:46;;;;;;;21.85;10.77;;;;;;;;;;5094140;28;20064;-72
2021/05/28 00:53:14;;;;;;;24.58;10.00;;;;;;;;;;5115202;27;20035;-72
2021/05/28 00:55:40;;;;;;;23.33;10.00;;;;;;;;;;5118476;27;20043;-72
2021/05/28 00:58:07;;;;;;;26.80;10.57;;;;;;;;;;5119177;27;20035;-72
2021/05/28 01:00:33;;;;;;;20.13;10.45;;;;;;;;;;5110716;27;20047;-72
2021/05/28 01:02:59;;;;;;;20.58;9.95;;;;;;;;;;5117292;27;20110;-71
2021/05/28 01:05:26;;;;;;;24.02;10.43;;;;;;;;;;5110836;28;20048;-71
2021/05/28 01:07:52;;;;;;;28.67;11.30;;;;;;;;;;5109541;28;20038;-72
2021/05/28 01:10:18;;;;;;;26.45;10.50;;;;;;;;;;5116095;27;20062;-72
2021/05/28 01:12:44;;;;;;;23.38;9.40;;;;;;;;;;5110762;27;20042;-72
2021/05/28 01:15:11;;;;;;;20.98;8.88;;;;;;;;;;5138936;27;20490;-74
2021/05/28 01:17:37;;;;;;;19.35;9.80;;;;;;;;;;5120631;27;20039;-73
2021/05/28 01:20:05;;;;;;;32.08;11.00;;;;;;;;;;5141446;27;20036;-71
2021/05/28 01:22:31;;;;;;;20.52;9.13;;;;;;;;;;5109256;28;20032;-71
2021/05/28 01:25:00;;;;;;;21.00;9.80;;;;;;;;;;5114898;27;20099;-72
2021/05/28 01:27:27;;;;;;;18.40;9.23;;;;;;;;;;5111493;28;20040;-71
2021/05/28 01:29:54;;;;;;;21.40;9.50;;;;;;;;;;5115047;28;20057;-72
2021/05/28 01:32:20;;;;;;;19.17;9.07;;;;;;;;;;5118504;28;20384;-72
2021/05/28 01:34:46;;;;;;;23.50;10.25;;;;;;;;;;5135168;27;20067;-71
2021/05/28 01:37:13;;;;;;;19.42;9.75;;;;;;;;;;5122808;27;20459;-71
2021/05/28 01:39:49;;;;;;;23.77;10.00;;;;;;;;;;5119728;28;20039;-72
2021/05/28 01:42:15;;;;;;;27.48;10.15;;;;;;;;;;5113017;28;20104;-74
2021/05/28 01:44:42;;;;;;;19.17;7.95;;;;;;;;;;5116535;28;20092;-71
2021/05/28 01:47:09;;;;;;;22.20;8.75;;;;;;;;;;5117862;28;20044;-71
2021/05/28 01:49:39;;;;;;;24.00;10.05;;;;;;;;;;5112526;28;20129;-71
2021/05/28 01:52:06;;;;;;;20.88;8.77;;;;;;;;;;5119712;28;20067;-71
2021/05/28 01:54:34;;;;;;;20.63;9.77;;;;;;;;;;5115558;28;20039;-71
2021/05/28 01:57:01;;;;;;;21.70;9.32;;;;;;;;;;5113337;28;20486;-72
2021/05/28 01:59:27;;;;;;;18.55;8.45;;;;;;;;;;5115207;28;20032;-71
2021/05/28 02:01:54;;;;;;;17.77;8.20;;;;;;;;;;5119828;28;20040;-71
2021/05/28 02:04:21;;;;;;;25.52;10.73;;;;;;;;;;5110757;28;20499;-72
2021/05/28 02:06:47;;;;;;;17.30;9.07;;;;;;;;;;5119092;28;20051;-71
2021/05/28 02:09:13;;;;;;;24.20;9.48;;;;;;;;;;5109972;28;20390;-71
2021/05/28 02:11:39;;;;;;;19.85;9.52;;;;;;;;;;5114578;28;20117;-71
2021/05/28 02:14:06;;;;;;;19.02;9.90;;;;;;;;;;5131012;27;20391;-71
2021/05/28 02:16:33;;;;;;;25.65;10.27;;;;;;;;;;5099829;28;20042;-71
2021/05/28 02:18:59;;;;;;;21.42;10.50;;;;;;;;;;5110409;28;20056;-71
2021/05/28 02:21:26;;;;;;;24.20;10.68;;;;;;;;;;5109244;28;20065;-72
2021/05/28 02:23:52;;;;;;;18.90;10.73;;;;;;;;;;5117859;28;20064;-71
2021/05/28 02:26:18;;;;;;;18.65;10.82;;;;;;;;;;5121053;28;20379;-73
2021/05/28 02:28:44;;;;;;;22.95;11.48;;;;;;;;;;5108735;28;20044;-74
2021/05/28 02:31:10;;;;;;;23.52;11.38;;;;;;;;;;5114511;27;20047;-71
2021/05/28 02:33:37;;;;;;;27.77;11.85;;;;;;;;;;5114251;27;20032;-71
2021/05/28 02:36:04;;;;;;;27.25;12.98;;;;;;;;;;5100392;27;20040;-72
2021/05/28 02:38:30;;;;;;;24.52;11.80;;;;;;;;;;5119678;27;20039;-71
2021/05/28 02:40:56;;;;;;;22.73;12.32;;;;;;;;;;5113527;27;20093;-73
2021/05/28 02:43:23;;;;;;;26.73;13.25;;;;;;;;;;5116297;27;20063;-74
2021/05/28 02:45:49;;;;;;;27.05;12.95;;;;;;;;;;5118924;27;20039;-71
2021/05/28 02:48:15;;;;;;;26.38;13.45;;;;;;;;;;5127021;27;20050;-71
2021/05/28 02:50:41;;;;;;;21.73;12.73;;;;;;;;;;5105464;27;20039;-71
2021/05/28 02:53:10;;;;;;;22.10;12.52;;;;;;;;;;5115109;27;20044;-71
2021/05/28 02:55:37;;;;;;;28.52;13.73;;;;;;;;;;5116238;27;20568;-72
2021/05/28 02:58:05;;;;;;;28.92;13.93;;;;;;;;;;5123817;27;20032;-72
2021/05/28 03:00:31;;;;;;;26.15;13.38;;;;;;;;;;5113364;28;20032;-71
2021/05/28 03:02:58;;;;;;;24.55;14.48;;;;;;;;;;5121625;27;20066;-71
2021/05/28 03:05:24;;;;;;;31.48;14.50;;;;;;;;;;5115566;27;20039;-75
2021/05/28 03:07:50;;;;;;;26.67;13.40;;;;;;;;;;5115736;27;20497;-71
2021/05/28 03:10:16;;;;;;;27.98;13.63;;;;;;;;;;5122906;27;20066;-71
2021/05/28 03:12:43;;;;;;;25.92;13.95;;;;;;;;;;5116769;27;20046;-72
2021/05/28 03:15:10;;;;;;;27.88;13.38;;;;;;;;;;5096254;28;20044;-71
2021/05/28 03:17:41;;;;;;;23.67;14.25;;;;;;;;;;5113006;27;20059;-71
2021/05/28 03:20:15;;;;;;;31.23;14.18;;;;;;;;;;5119254;27;20047;-72
2021/05/28 03:22:41;;;;;;;32.97;15.02;;;;;;;;;;5111253;27;20489;-71
2021/05/28 03:25:09;;;;;;;29.48;13.85;;;;;;;;;;5139423;27;20036;-71
2021/05/28 03:27:36;;;;;;;29.52;13.63;;;;;;;;;;5113023;27;20043;-71
2021/05/28 03:30:03;;;;;;;31.73;15.20;;;;;;;;;;5119050;27;20038;-71
2021/05/28 03:32:29;;;;;;;36.97;15.27;;;;;;;;;;5110861;27;20074;-72
2021/05/28 03:34:56;;;;;;;25.70;12.52;;;;;;;;;;5108545;28;20463;-72
2021/05/28 03:37:23;;;;;;;31.23;13.77;;;;;;;;;;5102490;27;20040;-71
2021/05/28 03:39:50;;;;;;;31.95;13.63;;;;;;;;;;5113563;27;20035;-71
2021/05/28 03:42:17;;;;;;;25.23;13.27;;;;;;;;;;5115388;27;20495;-71
2021/05/28 03:44:43;;;;;;;32.45;12.55;;;;;;;;;;5118162;27;20038;-71
2021/05/28 03:47:09;;;;;;;29.95;13.57;;;;;;;;;;5112496;27;20039;-71
2021/05/28 03:49:41;;;;;;;35.95;14.48;;;;;;;;;;5099520;28;20027;-71
2021/05/28 03:52:08;;;;;;;33.30;14.45;;;;;;;;;;5125150;27;20042;-71
2021/05/28 03:54:34;;;;;;;27.65;13.27;;;;;;;;;;5124835;27;20432;-72
2021/05/28 03:57:01;;;;;;;30.05;14.18;;;;;;;;;;5119164;27;20044;-71
2021/05/28 03:59:28;;;;;;;26.00;12.73;;;;;;;;;;5114354;27;20031;-75
2021/05/28 04:01:55;;;;;;;23.77;12.60;;;;;;;;;;5111499;28;20454;-71
2021/05/28 04:04:21;;;;;;;25.55;13.40;;;;;;;;;;5116465;27;20141;-71
2021/05/28 04:06:48;;;;;;;27.95;14.02;;;;;;;;;;5109678;27;20035;-71
2021/05/28 04:09:14;;;;;;;30.17;13.70;;;;;;;;;;5121612;27;20044;-71
2021/05/28 04:11:40;;;;;;;29.48;14.55;;;;;;;;;;5110323;28;20081;-72
2021/05/28 04:14:06;;;;;;;25.23;14.50;;;;;;;;;;5093284;28;20049;-71
2021/05/28 04:16:33;;;;;;;26.58;14.50;;;;;;;;;;5108925;27;20063;-74
2021/05/28 04:18:59;;;;;;;29.83;14.63;;;;;;;;;;5125224;27;20046;-71
2021/05/28 04:21:25;;;;;;;31.83;15.40;;;;;;;;;;5119297;27;20047;-71
2021/05/28 04:23:51;;;;;;;28.63;15.05;;;;;;;;;;5103023;28;20115;-72
2021/05/28 04:26:17;;;;;;;31.75;15.52;;;;;;;;;;5112301;28;20043;-71
2021/05/28 04:28:43;;;;;;;27.15;15.05;;;;;;;;;;5115302;27;20044;-71
2021/05/28 04:31:10;;;;;;;32.28;15.18;;;;;;;;;;5095297;28;20470;-71
2021/05/28 04:33:36;;;;;;;36.03;15.45;;;;;;;;;;5106335;27;20470;-70
2021/05/28 04:36:02;;;;;;;31.08;14.02;;;;;;;;;;5126540;27;20126;-71
2021/05/28 04:38:29;;;;;;;37.25;14.50;;;;;;;;;;5130580;27;20394;-71
2021/05/28 04:40:55;;;;;;;29.80;13.82;;;;;;;;;;5109945;27;20155;-71
2021/05/28 04:43:22;;;;;;;24.02;14.10;;;;;;;;;;5110461;28;20039;-70
2021/05/28 04:45:48;;;;;;;27.10;13.90;;;;;;;;;;5108973;27;20040;-70
2021/05/28 04:48:14;;;;;;;26.27;12.80;;;;;;;;;;5118076;27;20450;-73
2021/05/28 04:50:40;;;;;;;25.55;13.27;;;;;;;;;;5114465;27;20474;-72
2021/05/28 04:53:08;;;;;;;27.77;12.77;;;;;;;;;;5124409;27;20091;-72
2021/05/28 04:55:34;;;;;;;27.42;13.02;;;;;;;;;;5118839;27;20481;-75
2021/05/28 04:58:01;;;;;;;35.63;13.60;;;;;;;;;;5125989;27;20402;-72
2021/05/28 05:00:28;;;;;;;24.45;11.93;;;;;;;;;;5123467;27;20027;-72
2021/05/28 05:02:54;;;;;;;26.50;11.85;;;;;;;;;;5120233;27;20070;-71
2021/05/28 05:05:20;;;;;;;26.60;11.55;;;;;;;;;;5116620;27;20043;-71
2021/05/28 05:07:47;;;;;;;23.60;11.95;;;;;;;;;;5128391;27;20043;-72
2021/05/28 05:10:14;;;;;;;21.00;10.80;;;;;;;;;;5113832;27;20039;-71
2021/05/28 05:12:40;;;;;;;23.77;11.57;;;;;;;;;;5112677;27;20445;-71
2021/05/28 05:15:07;;;;;;;21.33;10.25;;;;;;;;;;5096791;28;20032;-71
2021/05/28 05:17:33;;;;;;;22.60;10.93;;;;;;;;;;5100754;27;20051;-71
2021/05/28 05:20:00;;;;;;;17.27;8.73;;;;;;;;;;5099785;28;20043;-71
2021/05/28 05:22:26;;;;;;;25.20;9.30;;;;;;;;;;5108905;27;20040;-71
2021/05/28 05:24:53;;;;;;;20.38;7.90;;;;;;;;;;5106987;28;20442;-71
2021/05/28 05:27:19;;;;;;;22.48;8.55;;;;;;;;;;5107739;28;20036;-71
2021/05/28 05:29:45;;;;;;;17.45;8.60;;;;;;;;;;5108682;28;20047;-71
2021/05/28 05:32:12;;;;;;;21.13;9.15;;;;;;;;;;5113613;28;20396;-72
2021/05/28 05:34:38;;;;;;;21.05;9.18;;;;;;;;;;5098885;28;20039;-75
2021/05/28 05:37:04;;;;;;;19.38;8.25;;;;;;;;;;5111831;28;20104;-72
2021/05/28 05:39:31;;;;;;;20.13;7.97;;;;;;;;;;5103269;28;20043;-72
2021/05/28 05:41:57;;;;;;;18.75;8.10;;;;;;;;;;5112043;28;20054;-72
2021/05/28 05:44:24;;;;;;;17.92;8.48;;;;;;;;;;5098430;28;20043;-73
2021/05/28 05:46:50;;;;;;;20.25;8.63;;;;;;;;;;5125836;27;20046;-72
2021/05/28 05:49:17;;;;;;;16.20;8.18;;;;;;;;;;5120305;27;20046;-72
2021/05/28 05:51:43;;;;;;;16.73;8.20;;;;;;;;;;5122463;28;20390;-73
2021/05/28 05:54:09;;;;;;;18.63;9.23;;;;;;;;;;5114171;28;20036;-73
2021/05/28 05:56:35;;;;;;;17.25;8.10;;;;;;;;;;5142744;27;20044;-73
2021/05/28 05:59:03;;;;;;;16.88;8.90;;;;;;;;;;5083189;28;20035;-73
2021/05/28 06:01:29;;;;;;;14.63;9.02;;;;;;;;;;5115816;28;20047;-73
2021/05/28 06:03:59;;;;;;;16.35;7.95;;;;;;;;;;5094328;28;20036;-72
2021/05/28 06:06:25;;;;;;;15.85;7.80;;;;;;;;;;5124358;27;20043;-72
2021/05/28 06:08:51;;;;;;;13.50;7.97;;;;;;;;;;5105482;27;20044;-72
2021/05/28 06:11:18;;;;;;;13.90;7.63;;;;;;;;;;5104005;27;20051;-74
2021/05/28 06:13:44;;;;;;;17.88;8.02;;;;;;;;;;5102315;27;20040;-74
2021/05/28 06:16:11;;;;;;;12.35;7.78;;;;;;;;;;5101136;27;20047;-73
2021/05/28 06:18:37;;;;;;;15.38;7.40;;;;;;;;;;5136324;27;20055;-74
2021/05/28 06:21:03;;;;;;;14.90;6.72;;;;;;;;;;5140175;27;20217;-72
2021/05/28 06:23:29;;;;;;;14.98;7.15;;;;;;;;;;5136215;27;20048;-75
2021/05/28 06:25:57;;;;;;;12.45;7.07;;;;;;;;;;5098528;27;20044;-72
2021/05/28 06:28:23;;;;;;;16.73;7.05;;;;;;;;;;5100641;27;20036;-72
2021/05/28 06:30:49;;;;;;;13.10;7.05;;;;;;;;;;5116254;27;20056;-72
2021/05/28 06:33:15;;;;;;;12.15;7.10;;;;;;;;;;5135440;27;20038;-73
2021/05/28 06:35:42;;;;;;;14.13;6.72;;;;;;;;;;5099531;27;20545;-74
2021/05/28 06:38:09;;;;;;;14.13;6.97;;;;;;;;;;5108390;27;20070;-73
2021/05/28 06:40:37;;;;;;;14.55;6.72;;;;;;;;;;5123037;27;20413;-73
2021/05/28 06:43:03;;;;;;;10.52;6.95;;;;;;;;;;5115584;27;20115;-73
2021/05/28 06:45:30;;;;;;;11.68;6.57;;;;;;;;;;5121679;27;20067;-73
2021/05/28 06:47:56;;;;;;;8.68;5.93;;;;;;;;;;5107167;27;20067;-75
2021/05/28 06:50:22;;;;;;;11.48;6.20;;;;;;;;;;5137401;27;20048;-73
2021/05/28 06:52:49;;;;;;;11.48;6.50;;;;;;;;;;5102245;27;20081;-73
2021/05/28 06:55:15;;;;;;;10.48;5.28;;;;;;;;;;5101299;27;20044;-73
2021/05/28 06:57:41;;;;;;;8.73;5.72;;;;;;;;;;5096251;27;20035;-73
2021/05/28 07:00:10;;;;;;;9.50;5.05;;;;;;;;;;5085671;27;20117;-73
2021/05/28 07:02:36;;;;;;;12.82;5.68;;;;;;;;;;5084391;27;20072;-74
2021/05/28 07:05:04;;;;;;;11.30;5.10;;;;;;;;;;5126752;27;20092;-73
2021/05/28 07:07:30;;;;;;;8.70;5.50;;;;;;;;;;5097571;27;20043;-73
2021/05/28 07:09:56;;;;;;;8.75;4.88;;;;;;;;;;5094582;27;20048;-73
2021/05/28 07:12:22;;;;;;;8.15;4.55;;;;;;;;;;5130332;27;20099;-74
2021/05/28 07:14:48;;;;;;;8.88;5.13;;;;;;;;;;5129126;27;20046;-75
2021/05/28 07:17:15;;;;;;;10.13;5.13;;;;;;;;;;5087366;27;20047;-73
2021/05/28 07:19:41;;;;;;;8.27;4.72;;;;;;;;;;5115381;27;20547;-73
2021/05/28 07:22:07;;;;;;;10.23;4.55;;;;;;;;;;5114964;27;20051;-73
2021/05/28 07:24:33;;;;;;;7.97;5.03;;;;;;;;;;5114227;27;20039;-75
2021/05/28 07:26:59;;;;;;;9.38;5.25;;;;;;;;;;5109730;27;20040;-75
2021/05/28 07:29:26;;;;;;;12.48;5.47;;;;;;;;;;5094923;27;20062;-72
2021/05/28 07:31:52;;;;;;;10.80;5.05;;;;;;;;;;5131586;27;20047;-74
2021/05/28 07:34:18;;;;;;;13.30;5.10;;;;;;;;;;5107075;27;20031;-75
2021/05/28 07:36:44;;;;;;;9.02;4.25;;;;;;;;;;5123334;27;20478;-73
2021/05/28 07:39:10;;;;;;;9.82;4.47;;;;;;;;;;5117990;27;20598;-73
2021/05/28 07:41:37;;;;;;;9.30;5.00;;;;;;;;;;5136750;27;20550;-72
2021/05/28 07:44:04;;;;;;;9.25;4.68;;;;;;;;;;5108159;28;20044;-74
2021/05/28 07:46:31;;;;;;;13.02;5.90;;;;;;;;;;5130899;27;20047;-75
2021/05/28 07:48:57;;;;;;;10.85;5.80;;;;;;;;;;5139931;27;20112;-74
2021/05/28 07:51:23;;;;;;;10.13;5.35;;;;;;;;;;5103579;27;20050;-74
2021/05/28 07:53:49;;;;;;;11.15;5.60;;;;;;;;;;5093862;27;20388;-74
2021/05/28 07:56:15;;;;;;;8.40;4.45;;;;;;;;;;5134429;27;20036;-72
2021/05/28 07:58:41;;;;;;;8.10;4.25;;;;;;;;;;5100733;27;20042;-72
2021/05/28 08:01:08;;;;;;;7.40;3.78;;;;;;;;;;5092116;27;20039;-72
2021/05/28 08:03:34;;;;;;;6.90;3.60;;;;;;;;;;5097908;27;20031;-72
2021/05/28 08:06:01;;;;;;;10.43;4.22;;;;;;;;;;5118107;27;20196;-72
2021/05/28 08:08:27;;;;;;;7.47;4.13;;;;;;;;;;5103557;27;20055;-72
2021/05/28 08:10:54;;;;;;;10.38;4.32;;;;;;;;;;5120686;27;20066;-74
2021/05/28 08:13:20;;;;;;;7.72;3.97;;;;;;;;;;5099069;27;20055;-72
2021/05/28 08:15:47;;;;;;;12.20;4.18;;;;;;;;;;5097965;27;20039;-72
2021/05/28 08:18:13;;;;;;;11.63;3.75;;;;;;;;;;5093039;27;20059;-71
2021/05/28 08:20:40;;;;;;;7.40;3.45;;;;;;;;;;5099350;27;20044;-72
2021/05/28 08:23:06;;;;;;;4.88;2.80;;;;;;;;;;5093800;27;20040;-73
2021/05/28 08:25:32;;;;;;;6.22;3.13;;;;;;;;;;5110225;27;20059;-72
2021/05/28 08:27:59;;;;;;;6.72;2.90;;;;;;;;;;5095622;27;20035;-74
2021/05/28 08:30:25;;;;;;;5.32;2.75;;;;;;;;;;5097199;27;20077;-73
2021/05/28 08:32:51;;;;;;;7.00;2.60;;;;;;;;;;5095184;27;20032;-74
2021/05/28 08:35:17;;;;;;;9.15;2.92;;;;;;;;;;5094840;27;20040;-74
2021/05/28 08:37:43;;;;;;;6.40;2.75;;;;;;;;;;5096927;27;20040;-73
2021/05/28 08:40:10;;;;;;;8.75;2.78;;;;;;;;;;5110300;27;20039;-73
2021/05/28 08:42:36;;;;;;;6.18;2.85;;;;;;;;;;5098176;27;20044;-76
2021/05/28 08:45:03;;;;;;;6.45;2.72;;;;;;;;;;5095200;28;20141;-73
2021/05/28 08:47:29;;;;;;;7.10;2.78;;;;;;;;;;5095513;27;20463;-74
2021/05/28 08:49:56;;;;;;;8.40;2.97;;;;;;;;;;5126205;27;20463;-75
2021/05/28 08:52:23;;;;;;;4.93;2.30;;;;;;;;;;5106386;27;20039;-73
2021/05/28 08:54:49;;;;;;;6.28;3.03;;;;;;;;;;5128666;27;20063;-74
2021/05/28 08:57:18;;;;;;;8.82;2.33;;;;;;;;;;5093327;27;20639;-72
2021/05/28 08:59:44;;;;;;;4.45;2.28;;;;;;;;;;5095048;27;20471;-72
2021/05/28 09:02:31;;;;;;;4.30;2.40;;;;;;;;;;5095648;27;20268;-71
2021/05/28 09:05:11;;;;;;;6.75;3.05;;;;;;;;;;5103822;27;20514;-73
2021/05/28 09:07:38;;;;;;;6.97;2.88;;;;;;;;;;5098913;27;20073;-71
2021/05/28 09:10:23;;;;;;;7.35;2.70;;;;;;;;;;5096950;27;20052;-71
2021/05/28 09:12:49;;;;;;;5.55;2.05;;;;;;;;;;5100129;28;20500;-73
2021/05/28 09:15:19;;;;;;;4.68;2.28;;;;;;;;;;5093828;27;20063;-70
2021/05/28 09:17:50;;;;;;;4.47;2.30;;;;;;;;;;5098739;28;20031;-73
2021/05/28 09:20:20;;;;;;;6.13;2.00;;;;;;;;;;5102415;27;20051;-70
2021/05/28 09:22:47;;;;;;;6.85;1.98;;;;;;;;;;5103039;28;20050;-71
2021/05/28 09:25:14;;;;;;;6.15;2.10;;;;;;;;;;5128617;27;20055;-71
2021/05/28 09:27:47;;;;;;;3.92;2.28;;;;;;;;;;5095966;28;20603;-72
2021/05/28 09:30:14;;;;;;;6.75;2.17;;;;;;;;;;5099111;28;20074;-70
2021/05/28 09:32:45;;;;;;;6.18;2.10;;;;;;;;;;5098665;28;20032;-73
2021/05/28 09:35:15;;;;;;;9.25;2.30;;;;;;;;;;5093312;28;20046;-71
2021/05/28 09:37:43;;;;;;;4.55;2.25;;;;;;;;;;5093191;28;20035;-72
2021/05/28 09:40:11;;;;;;;8.45;2.55;;;;;;;;;;5094255;28;20500;-71
2021/05/28 09:42:52;;;;;;;5.78;2.28;;;;;;;;;;5131704;27;20056;-71
2021/05/28 09:45:20;;;;;;;2.90;1.60;;;;;;;;;;5099866;27;20042;-71
2021/05/28 09:47:47;;;;;;;3.97;2.10;;;;;;;;;;5100671;27;20101;-73
2021/05/28 09:50:13;;;;;;;8.18;2.30;;;;;;;;;;5131793;27;20054;-75
2021/05/28 09:52:40;;;;;;;5.07;2.13;;;;;;;;;;5101069;27;20089;-73
2021/05/28 09:55:08;;;;;;;6.63;2.63;;;;;;;;;;5098551;27;20398;-73
2021/05/28 09:57:35;;;;;;;6.07;2.25;;;;;;;;;;5131089;27;20121;-74
2021/05/28 10:00:05;;;;;;;4.65;2.25;;;;;;;;;;5099067;27;20123;-75
2021/05/28 10:02:43;;;;;;;5.43;2.50;;;;;;;;;;5131952;27;20054;-74
2021/05/28 10:05:10;;;;;;;5.45;2.30;;;;;;;;;;5112841;27;20565;-78
2021/05/28 10:07:37;;;;;;;3.72;1.92;;;;;;;;;;5114734;27;20475;-82
2021/05/28 10:10:04;;;;;;;4.57;2.38;;;;;;;;;;5135670;27;20032;-74
2021/05/28 10:12:32;;;;;;;4.68;1.80;;;;;;;;;;5102835;28;20039;-76
2021/05/28 10:14:58;;;;;;;7.97;2.20;;;;;;;;;;5101682;28;20047;-77
2021/05/28 10:17:25;;;;;;;4.68;1.77;;;;;;;;;;5112388;27;20088;-78
2021/05/28 10:19:51;;;;;;;3.85;2.30;;;;;;;;;;5145489;27;20040;-77
2021/05/28 10:22:18;;;;;;;4.82;1.95;;;;;;;;;;5128558;27;20123;-78
2021/05/28 10:24:44;;;;;;;5.80;1.80;;;;;;;;;;5121791;27;20418;-78
2021/05/28 10:27:11;;;;;;;5.20;2.67;;;;;;;;;;5095670;28;20096;-79
2021/05/28 10:29:41;;;;;;;4.90;2.25;;;;;;;;;;5095274;28;20052;-74
2021/05/28 10:32:14;;;;;;;3.42;1.67;;;;;;;;;;5126853;27;20051;-78
2021/05/28 10:34:58;;;;;;;5.60;1.90;;;;;;;;;;5135201;27;20071;-75
2021/05/28 10:37:28;;;;;;;3.38;1.60;;;;;;;;;;5143958;27;20036;-75
2021/05/28 10:39:54;;;;;;;4.00;1.80;;;;;;;;;;5101594;28;20036;-76
2021/05/28 10:42:21;;;;;;;4.45;1.77;;;;;;;;;;5126606;27;20056;-75
2021/05/28 10:44:47;;;;;;;4.22;2.10;;;;;;;;;;5144276;27;20398;-78
2021/05/28 10:47:13;;;;;;;6.63;2.28;;;;;;;;;;5104000;28;20119;-74
2021/05/28 10:49:44;;;;;;;4.70;1.90;;;;;;;;;;5102767;28;20039;-73
2021/05/28 10:52:31;;;;;;;4.53;2.10;;;;;;;;;;5104318;27;20047;-73
2021/05/28 10:54:58;;;;;;;4.85;2.05;;;;;;;;;;5104556;28;20063;-73
2021/05/28 10:57:30;;;;;;;5.38;2.30;;;;;;;;;;5147542;27;20440;-73
2021/05/28 10:59:58;;;;;;;7.32;2.75;;;;;;;;;;5143164;27;20486;-74
2021/05/28 11:02:44;;;;;;;4.40;2.60;;;;;;;;;;5110936;28;20063;-74
2021/05/28 11:05:11;;;;;;;5.50;2.40;;;;;;;;;;5112439;28;20069;-75
2021/05/28 11:07:41;;;;;;;3.95;2.42;;;;;;;;;;5114308;28;20084;-74
2021/05/28 11:10:18;;;;;;;4.97;2.60;;;;;;;;;;5104315;27;20051;-74
2021/05/28 11:12:44;;;;;;;5.30;2.50;;;;;;;;;;5110014;28;20102;-71
2021/05/28 11:15:14;;;;;;;4.53;2.83;;;;;;;;;;5112037;28;20046;-71
2021/05/28 11:17:59;;;;;;;4.75;2.83;;;;;;;;;;5095291;28;20055;-71
2021/05/28 11:20:30;;;;;;;6.68;3.10;;;;;;;;;;5141600;27;20039;-71
2021/05/28 11:22:57;;;;;;;8.20;3.03;;;;;;;;;;5117120;27;20502;-73
2021/05/28 11:25:24;;;;;;;4.93;2.65;;;;;;;;;;5100044;27;20097;-75
2021/05/28 11:28:01;;;;;;;7.20;2.97;;;;;;;;;;5095713;28;20044;-79
2021/05/28 11:30:28;;;;;;;4.93;2.80;;;;;;;;;;5103430;28;20101;-78
2021/05/28 11:32:55;;;;;;;5.95;3.00;;;;;;;;;;5114176;28;20071;-77
2021/05/28 11:35:28;;;;;;;6.03;3.00;;;;;;;;;;5095091;28;20039;-76
2021/05/28 11:37:59;;;;;;;6.00;2.90;;;;;;;;;;5133808;27;20125;-76
2021/05/28 11:40:25;;;;;;;4.50;2.95;;;;;;;;;;5098296;28;20043;-76
2021/05/28 11:42:52;;;;;;;9.80;3.47;;;;;;;;;;5107691;27;20055;-74
2021/05/28 11:45:19;;;;;;;6.90;3.15;;;;;;;;;;5105946;28;20055;-71
2021/05/28 11:47:46;;;;;;;6.70;2.80;;;;;;;;;;5113915;28;20067;-71
2021/05/28 11:50:17;;;;;;;5.32;2.60;;;;;;;;;;5100799;28;20040;-75
2021/05/28 11:52:57;;;;;;;4.38;2.60;;;;;;;;;;5094297;28;20042;-70
2021/05/28 11:55:23;;;;;;;5.10;2.60;;;;;;;;;;5093517;28;20071;-70
2021/05/28 11:58:00;;;;;;;4.38;2.55;;;;;;;;;;5132342;27;20035;-70
2021/05/28 12:00:26;;;;;;;3.47;2.20;;;;;;;;;;5094787;27;20066;-74
2021/05/28 12:02:56;;;;;;;6.45;2.55;;;;;;;;;;5113299;27;20035;-69
2021/05/28 12:05:25;;;;;;;4.50;1.95;;;;;;;;;;5104569;27;20131;-73
2021/05/28 12:07:52;;;;;;;4.22;2.15;;;;;;;;;;5137231;27;20076;-73
2021/05/28 12:10:19;;;;;;;7.30;2.60;;;;;;;;;;5098436;28;20047;-73
2021/05/28 12:12:51;;;;;;;6.85;2.95;;;;;;;;;;5099777;27;20036;-72
2021/05/28 12:15:18;;;;;;;5.13;2.47;;;;;;;;;;5099082;28;20040;-72
2021/05/28 12:17:44;;;;;;;5.05;2.35;;;;;;;;;;5103739;28;20123;-72
2021/05/28 12:20:14;;;;;;;4.95;2.80;;;;;;;;;;5108679;28;20110;-72
2021/05/28 12:23:00;;;;;;;5.53;3.05;;;;;;;;;;5127533;27;20036;-71
2021/05/28 12:25:27;;;;;;;5.90;2.90;;;;;;;;;;5127597;27;20058;-71
2021/05/28 12:27:53;;;;;;;5.22;2.72;;;;;;;;;;5108963;28;20051;-72
2021/05/28 12:30:26;;;;;;;5.07;2.50;;;;;;;;;;5105744;28;20036;-72
2021/05/28 12:32:53;;;;;;;2.88;1.98;;;;;;;;;;5105245;28;20486;-72
2021/05/28 12:35:21;;;;;;;5.97;2.28;;;;;;;;;;5131985;27;20036;-72
2021/05/28 12:38:26;;;;;;;3.15;2.53;;;;;;;;;;5104043;28;20085;-72
2021/05/28 12:40:53;;;;;;;5.05;2.38;;;;;;;;;;5074245;28;20051;-72
2021/05/28 12:43:21;;;;;;;5.68;3.28;;;;;;;;;;5043766;28;20584;-75
2021/05/28 12:45:48;;;;;;;5.18;3.20;;;;;;;;;;5083765;28;20047;-71
2021/05/28 12:48:14;;;;;;;5.18;2.97;;;;;;;;;;5104010;27;20043;-72
2021/05/28 12:50:42;;;;;;;3.88;2.88;;;;;;;;;;5103615;27;20877;-71
2021/05/28 12:53:12;;;;;;;5.20;3.20;;;;;;;;;;5098921;27;20047;-71
2021/05/28 12:55:40;;;;;;;4.40;2.70;;;;;;;;;;5125550;27;20664;-72
2021/05/28 12:58:20;;;;;;;7.47;2.58;;;;;;;;;;5105622;28;20047;-72
2021/05/28 13:00:52;;;;;;;4.72;2.65;;;;;;;;;;5106289;28;20078;-72
2021/05/28 13:03:31;;;;;;;5.38;2.63;;;;;;;;;;5101388;28;20474;-72
2021/05/28 13:05:57;;;;;;;5.95;2.88;;;;;;;;;;5100249;28;20047;-73
2021/05/28 13:08:31;;;;;;;4.68;2.90;;;;;;;;;;5101592;28;20040;-72
2021/05/28 13:10:58;;;;;;;4.10;2.58;;;;;;;;;;5092199;28;20391;-72
2021/05/28 13:13:24;;;;;;;4.82;2.60;;;;;;;;;;5101672;27;20063;-72
2021/05/28 13:15:51;;;;;;;4.55;2.55;;;;;;;;;;5094544;28;20040;-72
2021/05/28 13:18:18;;;;;;;5.00;2.50;;;;;;;;;;5094673;28;20044;-75
2021/05/28 13:20:44;;;;;;;3.03;2.13;;;;;;;;;;5091050;28;20093;-73
2021/05/28 13:23:29;;;;;;;2.78;2.15;;;;;;;;;;5127559;27;20812;-72
2021/05/28 13:25:55;;;;;;;4.65;1.98;;;;;;;;;;5092852;28;20040;-72
2021/05/28 13:28:22;;;;;;;3.40;2.05;;;;;;;;;;5092184;28;20048;-71
2021/05/28 13:30:49;;;;;;;5.55;2.05;;;;;;;;;;5103426;28;20466;-72
2021/05/28 13:33:38;;;;;;;4.85;2.10;;;;;;;;;;5105990;28;20039;-71
2021/05/28 13:36:05;;;;;;;4.00;1.92;;;;;;;;;;5114886;28;20497;-72
2021/05/28 13:38:32;;;;;;;5.38;2.00;;;;;;;;;;5116433;28;20031;-72
2021/05/28 13:41:00;;;;;;;4.45;2.15;;;;;;;;;;5109932;28;20039;-72
2021/05/28 13:43:26;;;;;;;3.67;2.00;;;;;;;;;;5104633;28;20092;-72
2021/05/28 13:45:57;;;;;;;3.67;2.20;;;;;;;;;;5091599;28;20120;-72
2021/05/28 13:48:23;;;;;;;3.28;2.13;;;;;;;;;;5114856;28;20118;-72
2021/05/28 13:50:49;;;;;;;4.97;2.05;;;;;;;;;;5091458;28;20047;-71
2021/05/28 13:53:17;;;;;;;4.50;2.30;;;;;;;;;;5128048;27;20441;-71
2021/05/28 13:55:44;;;;;;;5.32;2.00;;;;;;;;;;5097709;28;20039;-72
2021/05/28 13:58:11;;;;;;;4.03;2.08;;;;;;;;;;5119345;27;20054;-71
2021/05/28 14:00:38;;;;;;;5.15;2.13;;;;;;;;;;5096281;28;20101;-71
2021/05/28 14:03:05;;;;;;;4.75;2.10;;;;;;;;;;5097939;28;20036;-71
2021/05/28 14:05:32;;;;;;;6.07;2.28;;;;;;;;;;5093377;28;20059;-71
2021/05/28 14:08:00;;;;;;;3.95;2.15;;;;;;;;;;5094104;28;20051;-71
2021/05/28 14:10:26;;;;;;;3.20;1.80;;;;;;;;;;5101321;28;20509;-71
2021/05/28 14:12:54;;;;;;;2.80;1.67;;;;;;;;;;5142754;27;20063;-71
2021/05/28 14:15:20;;;;;;;2.70;1.45;;;;;;;;;;5108642;28;20047;-70
2021/05/28 14:17:50;;;;;;;2.22;1.30;;;;;;;;;;5091914;28;20410;-70
2021/05/28 14:20:22;;;;;;;4.55;1.85;;;;;;;;;;5100062;28;20479;-70
2021/05/28 14:22:48;;;;;;;5.18;2.03;;;;;;;;;;5101925;28;20032;-70
2021/05/28 14:25:14;;;;;;;4.93;1.63;;;;;;;;;;5104301;28;20382;-71
2021/05/28 14:27:40;;;;;;;5.65;1.70;;;;;;;;;;5129622;27;20040;-71
2021/05/28 14:30:08;;;;;;;23.48;1.50;;;;;;;;;;5104630;28;20044;-71
2021/05/28 14:32:34;;;;;;;3.42;1.55;;;;;;;;;;5096774;28;20048;-70
2021/05/28 14:35:00;;;;;;;17.92;2.78;;;;;;;;;;5103256;27;20040;-71
2021/05/28 14:37:28;;;;;;;5.68;2.38;;;;;;;;;;5105632;27;20062;-71